sensor_id;sensor_type;location;lat;lon;timestamp;pressure;altitude;pressure_sealevel;temperature;humidity
62402;BME280;48440;51.224;22.506;2022-08-01T00:00:24;98715.09;;;18.67;76.32
62402;BME280;48440;51.224;22.506;2022-08-01T00:02:49;98715.09;;;18.67;76.06
62402;BME280;48440;51.224;22.506;2022-08-01T00:05:15;98710.22;;;18.64;76.13
62402;BME280;48440;51.224;22.506;2022-08-01T00:07:40;98712.66;;;18.66;76.17
62402;BME280;48440;51.224;22.506;2022-08-01T00:10:09;98713.63;;;18.61;76.28
62402;BME280;48440;51.224;22.506;2022-08-01T00:12:35;98718.28;;;18.60;75.93
62402;BME280;48440;51.224;22.506;2022-08-01T00:15:01;98716.69;;;18.59;76.17
62402;BME280;48440;51.224;22.506;2022-08-01T00:17:26;98721.66;;;18.57;76.28
62402;BME280;48440;51.224;22.506;2022-08-01T00:19:52;98726.66;;;18.55;76.48
62402;BME280;48440;51.224;22.506;2022-08-01T00:22:18;98721.81;;;18.52;76.42
62402;BME280;48440;51.224;22.506;2022-08-01T00:24:43;98724.53;;;18.52;76.58
62402;BME280;48440;51.224;22.506;2022-08-01T00:27:09;98720.66;;;18.53;76.07
62402;BME280;48440;51.224;22.506;2022-08-01T00:29:34;98724.38;;;18.49;75.50
62402;BME280;48440;51.224;22.506;2022-08-01T00:31:59;98724.69;;;18.47;75.46
62402;BME280;48440;51.224;22.506;2022-08-01T00:34:25;98719.69;;;18.41;75.20
62402;BME280;48440;51.224;22.506;2022-08-01T00:36:50;98719.53;;;18.37;75.39
62402;BME280;48440;51.224;22.506;2022-08-01T00:39:16;98726.13;;;18.36;75.97
62402;BME280;48440;51.224;22.506;2022-08-01T00:41:41;98724.53;;;18.35;75.21
62402;BME280;48440;51.224;22.506;2022-08-01T00:44:07;98727.28;;;18.35;75.25
62402;BME280;48440;51.224;22.506;2022-08-01T00:46:33;98722.41;;;18.32;75.26
62402;BME280;48440;51.224;22.506;2022-08-01T00:48:59;98726.28;;;18.31;75.46
62402;BME280;48440;51.224;22.506;2022-08-01T00:51:26;98732.91;;;18.30;75.09
62402;BME280;48440;51.224;22.506;2022-08-01T00:53:52;98734.84;;;18.29;74.48
62402;BME280;48440;51.224;22.506;2022-08-01T00:56:20;98729.34;;;18.29;74.25
62402;BME280;48440;51.224;22.506;2022-08-01T00:58:47;98731.28;;;18.29;74.09
62402;BME280;48440;51.224;22.506;2022-08-01T01:01:13;98731.28;;;18.29;73.49
62402;BME280;48440;51.224;22.506;2022-08-01T01:03:39;98739.03;;;18.27;73.70
62402;BME280;48440;51.224;22.506;2022-08-01T01:12:01;98726.56;;;18.21;73.59
62402;BME280;48440;51.224;22.506;2022-08-01T01:14:41;98726.88;;;18.19;73.76
62402;BME280;48440;51.224;22.506;2022-08-01T01:17:13;98729.63;;;18.19;73.87
62402;BME280;48440;51.224;22.506;2022-08-01T01:19:45;98724.94;;;18.20;73.79
62402;BME280;48440;51.224;22.506;2022-08-01T01:30:31;98741.41;;;18.11;74.45
62402;BME280;48440;51.224;22.506;2022-08-01T01:33:00;98737.69;;;18.07;74.36
62402;BME280;48440;51.224;22.506;2022-08-01T01:35:28;98739.63;;;18.07;74.27
62402;BME280;48440;51.224;22.506;2022-08-01T01:38:05;98742.19;;;18.03;74.37
62402;BME280;48440;51.224;22.506;2022-08-01T01:40:32;98737.31;;;18.00;74.24
62402;BME280;48440;51.224;22.506;2022-08-01T01:42:59;98733.25;;;17.97;74.61
62402;BME280;48440;51.224;22.506;2022-08-01T01:45:25;98736.81;;;17.98;74.40
62402;BME280;48440;51.224;22.506;2022-08-01T01:47:52;98741.50;;;17.97;74.60
62402;BME280;48440;51.224;22.506;2022-08-01T01:50:23;98743.44;;;17.97;74.47
62402;BME280;48440;51.224;22.506;2022-08-01T01:52:49;98741.31;;;17.94;74.77
62402;BME280;48440;51.224;22.506;2022-08-01T01:55:18;98742.13;;;17.94;74.76
62402;BME280;48440;51.224;22.506;2022-08-01T01:57:47;98742.78;;;17.91;74.68
62402;BME280;48440;51.224;22.506;2022-08-01T02:00:15;98745.19;;;17.93;74.30
62402;BME280;48440;51.224;22.506;2022-08-01T02:02:41;98751.50;;;17.93;74.90
62402;BME280;48440;51.224;22.506;2022-08-01T02:05:09;98752.97;;;17.91;74.78
62402;BME280;48440;51.224;22.506;2022-08-01T02:07:36;98755.03;;;17.85;74.79
62402;BME280;48440;51.224;22.506;2022-08-01T02:10:03;98760.00;;;17.83;74.96
62402;BME280;48440;51.224;22.506;2022-08-01T02:12:33;98762.94;;;17.87;74.21
62402;BME280;48440;51.224;22.506;2022-08-01T02:15:01;98759.22;;;17.83;74.54
62402;BME280;48440;51.224;22.506;2022-08-01T02:17:29;98758.88;;;17.84;74.75
62402;BME280;48440;51.224;22.506;2022-08-01T02:19:56;98761.13;;;17.82;74.66
62402;BME280;48440;51.224;22.506;2022-08-01T02:25:15;98751.28;;;17.81;73.87
62402;BME280;48440;51.224;22.506;2022-08-01T02:27:58;98757.09;;;17.80;73.77
62402;BME280;48440;51.224;22.506;2022-08-01T02:30:29;98761.44;;;17.81;73.67
62402;BME280;48440;51.224;22.506;2022-08-01T02:33:04;98767.69;;;17.73;73.81
62402;BME280;48440;51.224;22.506;2022-08-01T02:35:33;98755.91;;;17.72;73.95
62402;BME280;48440;51.224;22.506;2022-08-01T02:38:01;98757.84;;;17.72;73.91
62402;BME280;48440;51.224;22.506;2022-08-01T02:40:32;98768.97;;;17.67;74.31
62402;BME280;48440;51.224;22.506;2022-08-01T02:42:59;98759.28;;;17.69;74.05
62402;BME280;48440;51.224;22.506;2022-08-01T02:45:26;98762.53;;;17.71;74.03
62402;BME280;48440;51.224;22.506;2022-08-01T02:47:57;98773.00;;;17.69;74.13
62402;BME280;48440;51.224;22.506;2022-08-01T02:50:25;98765.06;;;17.68;74.32
62402;BME280;48440;51.224;22.506;2022-08-01T02:52:52;98772.84;;;17.66;74.49
62402;BME280;48440;51.224;22.506;2022-08-01T02:55:19;98772.84;;;17.66;74.29
62402;BME280;48440;51.224;22.506;2022-08-01T02:57:46;98772.03;;;17.65;74.19
62402;BME280;48440;51.224;22.506;2022-08-01T03:00:15;98767.34;;;17.66;73.74
62402;BME280;48440;51.224;22.506;2022-08-01T03:02:41;98768.47;;;17.65;73.92
62402;BME280;48440;51.224;22.506;2022-08-01T03:05:10;98766.81;;;17.63;73.99
62402;BME280;48440;51.224;22.506;2022-08-01T03:07:37;98770.69;;;17.62;74.17
62402;BME280;48440;51.224;22.506;2022-08-01T03:10:05;98768.25;;;17.61;74.07
62402;BME280;48440;51.224;22.506;2022-08-01T03:12:33;98774.88;;;17.60;73.56
62402;BME280;48440;51.224;22.506;2022-08-01T03:15:00;98773.69;;;17.52;73.89
62402;BME280;48440;51.224;22.506;2022-08-01T03:17:28;98765.44;;;17.52;73.83
62402;BME280;48440;51.224;22.506;2022-08-01T03:19:57;98770.94;;;17.52;73.78
62402;BME280;48440;51.224;22.506;2022-08-01T03:22:24;98767.19;;;17.48;73.60
62402;BME280;48440;51.224;22.506;2022-08-01T03:24:52;98771.06;;;17.47;73.70
62402;BME280;48440;51.224;22.506;2022-08-01T03:27:22;98771.06;;;17.47;73.80
62402;BME280;48440;51.224;22.506;2022-08-01T03:29:50;98776.41;;;17.52;73.49
62402;BME280;48440;51.224;22.506;2022-08-01T03:32:17;98770.13;;;17.52;73.37
62402;BME280;48440;51.224;22.506;2022-08-01T03:34:43;98777.41;;;17.56;72.95
62402;BME280;48440;51.224;22.506;2022-08-01T03:37:14;98774.69;;;17.56;73.17
62402;BME280;48440;51.224;22.506;2022-08-01T03:40:17;98776.09;;;17.54;73.23
62402;BME280;48440;51.224;22.506;2022-08-01T03:42:37;98784.34;;;17.54;73.47
62402;BME280;48440;51.224;22.506;2022-08-01T03:45:08;98791.38;;;17.46;73.76
62402;BME280;48440;51.224;22.506;2022-08-01T03:47:36;98790.25;;;17.47;73.75
62402;BME280;48440;51.224;22.506;2022-08-01T03:50:04;98794.00;;;17.51;73.60
62402;BME280;48440;51.224;22.506;2022-08-01T03:52:32;98796.88;;;17.46;73.89
62402;BME280;48440;51.224;22.506;2022-08-01T03:55:03;98798.78;;;17.46;73.81
62402;BME280;48440;51.224;22.506;2022-08-01T03:57:30;98807.03;;;17.46;74.18
62402;BME280;48440;51.224;22.506;2022-08-01T04:00:00;98793.19;;;17.51;73.98
62402;BME280;48440;51.224;22.506;2022-08-01T04:02:28;98790.25;;;17.47;73.86
62402;BME280;48440;51.224;22.506;2022-08-01T04:04:55;98799.09;;;17.44;74.26
62402;BME280;48440;51.224;22.506;2022-08-01T04:07:29;98798.78;;;17.46;74.35
62402;BME280;48440;51.224;22.506;2022-08-01T04:09:55;98799.91;;;17.45;74.41
62402;BME280;48440;51.224;22.506;2022-08-01T04:12:21;98798.78;;;17.46;74.58
62402;BME280;48440;51.224;22.506;2022-08-01T04:14:47;98804.28;;;17.46;73.86
62402;BME280;48440;51.224;22.506;2022-08-01T04:17:14;98804.59;;;17.44;74.67
62402;BME280;48440;51.224;22.506;2022-08-01T04:19:40;98806.53;;;17.44;74.29
62402;BME280;48440;51.224;22.506;2022-08-01T04:22:06;98810.69;;;17.41;74.26
62402;BME280;48440;51.224;22.506;2022-08-01T04:24:34;98811.34;;;17.38;74.36
62402;BME280;48440;51.224;22.506;2022-08-01T04:27:02;98813.78;;;17.40;74.47
62402;BME280;48440;51.224;22.506;2022-08-01T04:29:31;98814.41;;;17.37;74.59
62402;BME280;48440;51.224;22.506;2022-08-01T04:31:58;98818.13;;;17.41;74.46
62402;BME280;48440;51.224;22.506;2022-08-01T04:34:28;98820.53;;;17.42;74.32
62402;BME280;48440;51.224;22.506;2022-08-01T04:36:56;98821.03;;;17.44;74.47
62402;BME280;48440;51.224;22.506;2022-08-01T04:39:28;98815.56;;;17.44;74.21
62402;BME280;48440;51.224;22.506;2022-08-01T04:41:58;98812.81;;;17.44;74.39
62402;BME280;48440;51.224;22.506;2022-08-01T04:44:25;98816.69;;;17.43;74.56
62402;BME280;48440;51.224;22.506;2022-08-01T04:46:53;98815.06;;;17.42;74.41
62402;BME280;48440;51.224;22.506;2022-08-01T04:49:20;98821.34;;;17.43;74.50
62402;BME280;48440;51.224;22.506;2022-08-01T04:51:53;98818.06;;;17.32;75.21
62402;BME280;48440;51.224;22.506;2022-08-01T04:54:30;98815.50;;;17.36;74.92
62402;BME280;48440;51.224;22.506;2022-08-01T04:56:59;98816.00;;;17.38;75.02
62402;BME280;48440;51.224;22.506;2022-08-01T04:59:36;98820.06;;;17.40;75.26
62402;BME280;48440;51.224;22.506;2022-08-01T05:02:16;98824.75;;;17.40;75.10
62402;BME280;48440;51.224;22.506;2022-08-01T05:04:44;98821.19;;;17.39;75.44
62402;BME280;48440;51.224;22.506;2022-08-01T05:07:10;98818.63;;;17.43;75.11
62402;BME280;48440;51.224;22.506;2022-08-01T05:09:36;98818.91;;;17.41;75.05
62402;BME280;48440;51.224;22.506;2022-08-01T05:12:03;98817.63;;;17.39;74.68
62402;BME280;48440;51.224;22.506;2022-08-01T05:14:30;98825.56;;;17.40;74.72
62402;BME280;48440;51.224;22.506;2022-08-01T05:16:59;98822.31;;;17.38;74.18
62402;BME280;48440;51.224;22.506;2022-08-01T05:19:25;98826.47;;;17.36;74.21
62402;BME280;48440;51.224;22.506;2022-08-01T05:21:51;98822.31;;;17.38;74.66
62402;BME280;48440;51.224;22.506;2022-08-01T05:24:17;98832.00;;;17.44;74.15
62402;BME280;48440;51.224;22.506;2022-08-01T05:26:42;98825.41;;;17.45;74.27
62402;BME280;48440;51.224;22.506;2022-08-01T05:29:08;98830.47;;;17.52;73.82
62402;BME280;48440;51.224;22.506;2022-08-01T05:31:33;98827.84;;;17.47;73.72
62402;BME280;48440;51.224;22.506;2022-08-01T05:34:02;98822.84;;;17.49;74.11
62402;BME280;48440;51.224;22.506;2022-08-01T05:36:28;98832.00;;;17.44;74.10
62402;BME280;48440;51.224;22.506;2022-08-01T05:38:54;98830.28;;;17.48;73.71
62402;BME280;48440;51.224;22.506;2022-08-01T05:41:20;98841.88;;;17.45;74.44
62402;BME280;48440;51.224;22.506;2022-08-01T05:43:45;98840.75;;;17.46;74.17
62402;BME280;48440;51.224;22.506;2022-08-01T05:46:11;98831.91;;;17.49;74.70
62402;BME280;48440;51.224;22.506;2022-08-01T05:48:36;98831.09;;;17.49;74.20
62402;BME280;48440;51.224;22.506;2022-08-01T05:51:02;98837.69;;;17.48;74.47
62402;BME280;48440;51.224;22.506;2022-08-01T05:53:28;98838.69;;;17.52;74.08
62402;BME280;48440;51.224;22.506;2022-08-01T05:55:53;98843.88;;;17.53;74.23
62402;BME280;48440;51.224;22.506;2022-08-01T05:58:19;98838.19;;;17.50;74.62
62402;BME280;48440;51.224;22.506;2022-08-01T06:00:44;98845.31;;;17.51;74.59
62402;BME280;48440;51.224;22.506;2022-08-01T06:03:10;98848.66;;;17.48;74.64
62402;BME280;48440;51.224;22.506;2022-08-01T06:05:36;98838.31;;;17.45;74.97
62402;BME280;48440;51.224;22.506;2022-08-01T06:08:02;98838.63;;;17.43;75.39
62402;BME280;48440;51.224;22.506;2022-08-01T06:10:28;98848.34;;;17.49;75.35
62402;BME280;48440;51.224;22.506;2022-08-01T06:12:53;98841.88;;;17.45;75.69
62402;BME280;48440;51.224;22.506;2022-08-01T06:15:19;98845.13;;;17.47;75.53
62402;BME280;48440;51.224;22.506;2022-08-01T06:17:44;98850.59;;;17.47;75.49
62402;BME280;48440;51.224;22.506;2022-08-01T06:20:10;98847.66;;;17.44;75.67
62402;BME280;48440;51.224;22.506;2022-08-01T06:22:35;98850.59;;;17.47;75.43
62402;BME280;48440;51.224;22.506;2022-08-01T06:25:01;98855.47;;;17.50;75.16
62402;BME280;48440;51.224;22.506;2022-08-01T06:27:28;98842.13;;;17.57;74.94
62402;BME280;48440;51.224;22.506;2022-08-01T06:29:54;98848.31;;;17.63;74.78
62402;BME280;48440;51.224;22.506;2022-08-01T06:32:23;98850.13;;;17.68;74.83
62402;BME280;48440;51.224;22.506;2022-08-01T06:34:49;98860.28;;;17.67;74.24
62402;BME280;48440;51.224;22.506;2022-08-01T06:37:15;98862.03;;;17.63;74.20
62402;BME280;48440;51.224;22.506;2022-08-01T06:39:40;98857.97;;;17.60;74.41
62402;BME280;48440;51.224;22.506;2022-08-01T06:42:06;98855.72;;;17.62;74.16
62402;BME280;48440;51.224;22.506;2022-08-01T06:44:31;98863.03;;;17.67;74.26
62402;BME280;48440;51.224;22.506;2022-08-01T06:46:57;98855.56;;;17.81;73.94
62402;BME280;48440;51.224;22.506;2022-08-01T06:49:25;98853.50;;;17.87;73.76
62402;BME280;48440;51.224;22.506;2022-08-01T06:51:51;98865.81;;;17.89;73.18
62402;BME280;48440;51.224;22.506;2022-08-01T06:54:16;98863.69;;;17.86;73.64
62402;BME280;48440;51.224;22.506;2022-08-01T06:56:42;98873.03;;;17.85;73.96
62402;BME280;48440;51.224;22.506;2022-08-01T06:59:08;98876.09;;;17.84;73.54
62402;BME280;48440;51.224;22.506;2022-08-01T07:01:33;98876.41;;;17.82;74.13
62402;BME280;48440;51.224;22.506;2022-08-01T07:03:59;98872.53;;;17.83;73.81
62402;BME280;48440;51.224;22.506;2022-08-01T07:06:25;98871.78;;;17.91;73.72
62402;BME280;48440;51.224;22.506;2022-08-01T07:08:52;98874.94;;;18.07;72.36
62402;BME280;48440;51.224;22.506;2022-08-01T07:11:17;98871.25;;;18.12;72.80
62402;BME280;48440;51.224;22.506;2022-08-01T07:13:43;98878.31;;;18.04;72.87
62402;BME280;48440;51.224;22.506;2022-08-01T07:16:11;98881.19;;;17.99;73.75
62402;BME280;48440;51.224;22.506;2022-08-01T07:18:36;98878.44;;;17.99;73.04
62402;BME280;48440;51.224;22.506;2022-08-01T07:21:02;98879.44;;;18.03;73.12
62402;BME280;48440;51.224;22.506;2022-08-01T07:23:27;98884.06;;;18.16;73.03
62402;BME280;48440;51.224;22.506;2022-08-01T07:25:53;98877.66;;;18.29;71.21
62402;BME280;48440;51.224;22.506;2022-08-01T07:28:19;98874.16;;;18.38;69.73
62402;BME280;48440;51.224;22.506;2022-08-01T07:30:44;98876.75;;;18.43;70.08
62402;BME280;48440;51.224;22.506;2022-08-01T07:33:10;98873.72;;;18.53;69.79
62402;BME280;48440;51.224;22.506;2022-08-01T07:35:36;98876.31;;;18.58;69.36
62402;BME280;48440;51.224;22.506;2022-08-01T07:38:04;98881.41;;;18.64;69.28
62402;BME280;48440;51.224;22.506;2022-08-01T07:40:30;98881.41;;;18.73;69.18
62402;BME280;48440;51.224;22.506;2022-08-01T07:42:55;98878.72;;;18.90;68.64
62402;BME280;48440;51.224;22.506;2022-08-01T07:45:21;98884.41;;;19.03;68.25
62402;BME280;48440;51.224;22.506;2022-08-01T07:47:46;98887.22;;;19.20;67.77
62402;BME280;48440;51.224;22.506;2022-08-01T07:50:15;98885.91;;;19.35;67.48
62402;BME280;48440;51.224;22.506;2022-08-01T07:52:41;98878.81;;;19.51;66.57
62402;BME280;48440;51.224;22.506;2022-08-01T07:55:07;98881.75;;;19.63;66.69
62402;BME280;48440;51.224;22.506;2022-08-01T07:57:34;98884.00;;;19.78;66.57
62402;BME280;48440;51.224;22.506;2022-08-01T08:00:00;98887.88;;;19.86;65.60
62402;BME280;48440;51.224;22.506;2022-08-01T08:02:26;98895.50;;;19.89;65.07
62402;BME280;48440;51.224;22.506;2022-08-01T08:04:51;98887.41;;;19.92;64.61
62402;BME280;48440;51.224;22.506;2022-08-01T08:07:17;98887.03;;;20.03;63.79
62402;BME280;48440;51.224;22.506;2022-08-01T08:09:43;98890.00;;;20.61;62.89
62402;BME280;48440;51.224;22.506;2022-08-01T08:12:09;98893.09;;;21.27;61.10
62402;BME280;48440;51.224;22.506;2022-08-01T08:14:34;98893.28;;;21.64;60.42
62402;BME280;48440;51.224;22.506;2022-08-01T08:17:00;98880.78;;;21.99;59.18
62402;BME280;48440;51.224;22.506;2022-08-01T08:19:25;98882.53;;;22.37;58.25
62402;BME280;48440;51.224;22.506;2022-08-01T08:21:51;98878.97;;;22.49;57.58
62402;BME280;48440;51.224;22.506;2022-08-01T08:24:16;98880.50;;;22.71;56.62
62402;BME280;48440;51.224;22.506;2022-08-01T08:26:45;98876.72;;;23.12;56.36
62402;BME280;48440;51.224;22.506;2022-08-01T08:29:11;98877.84;;;23.35;54.97
62402;BME280;48440;51.224;22.506;2022-08-01T08:31:36;98901.38;;;23.17;55.18
62402;BME280;48440;51.224;22.506;2022-08-01T08:34:03;98888.84;;;22.83;55.30
62402;BME280;48440;51.224;22.506;2022-08-01T08:36:28;98889.81;;;22.54;55.23
62402;BME280;48440;51.224;22.506;2022-08-01T08:38:54;98891.63;;;22.38;55.17
62402;BME280;48440;51.224;22.506;2022-08-01T08:41:20;98899.63;;;22.18;56.06
62402;BME280;48440;51.224;22.506;2022-08-01T08:43:47;98892.28;;;22.22;55.90
62402;BME280;48440;51.224;22.506;2022-08-01T08:46:13;98889.44;;;22.31;55.45
62402;BME280;48440;51.224;22.506;2022-08-01T08:48:40;98894.03;;;22.27;55.46
62402;BME280;48440;51.224;22.506;2022-08-01T08:51:07;98899.16;;;22.16;55.44
62402;BME280;48440;51.224;22.506;2022-08-01T08:53:35;98911.84;;;22.17;55.02
62402;BME280;48440;51.224;22.506;2022-08-01T08:56:02;98915.53;;;22.21;55.70
62402;BME280;48440;51.224;22.506;2022-08-01T08:58:30;98917.94;;;22.56;55.63
62402;BME280;48440;51.224;22.506;2022-08-01T09:00:59;98917.38;;;22.75;55.85
62402;BME280;48440;51.224;22.506;2022-08-01T09:03:25;98917.75;;;22.97;54.76
62402;BME280;48440;51.224;22.506;2022-08-01T09:05:51;98913.41;;;23.09;53.72
62402;BME280;48440;51.224;22.506;2022-08-01T09:08:16;98909.41;;;23.46;53.13
62402;BME280;48440;51.224;22.506;2022-08-01T09:10:42;98901.75;;;23.80;53.40
62402;BME280;48440;51.224;22.506;2022-08-01T09:13:09;98912.28;;;24.02;51.94
62402;BME280;48440;51.224;22.506;2022-08-01T09:15:44;98905.47;;;24.27;51.36
62402;BME280;48440;51.224;22.506;2022-08-01T09:23:38;98904.88;;;24.50;49.38
62402;BME280;48440;51.224;22.506;2022-08-01T09:26:19;98910.16;;;24.55;49.45
62402;BME280;48440;51.224;22.506;2022-08-01T09:28:47;98909.38;;;24.70;49.56
62402;BME280;48440;51.224;22.506;2022-08-01T09:31:17;98916.63;;;24.90;48.97
62402;BME280;48440;51.224;22.506;2022-08-01T09:33:53;98919.22;;;24.99;49.24
62402;BME280;48440;51.224;22.506;2022-08-01T09:39:12;98922.63;;;25.08;46.85
62402;BME280;48440;51.224;22.506;2022-08-01T09:44:48;98918.06;;;25.16;46.91
62402;BME280;48440;51.224;22.506;2022-08-01T09:47:40;98921.63;;;25.32;46.80
62402;BME280;48440;51.224;22.506;2022-08-01T09:50:09;98920.44;;;25.33;46.45
62402;BME280;48440;51.224;22.506;2022-08-01T09:52:53;98921.69;;;25.35;46.49
62402;BME280;48440;51.224;22.506;2022-08-01T09:55:24;98930.56;;;25.25;46.14
62402;BME280;48440;51.224;22.506;2022-08-01T09:58:03;98934.19;;;25.10;46.02
62402;BME280;48440;51.224;22.506;2022-08-01T10:01:20;98924.59;;;25.08;45.72
62402;BME280;48440;51.224;22.506;2022-08-01T10:04:07;98925.38;;;25.24;46.11
62402;BME280;48440;51.224;22.506;2022-08-01T10:07:02;98924.13;;;25.21;46.88
62402;BME280;48440;51.224;22.506;2022-08-01T10:09:33;98929.78;;;25.25;45.62
62402;BME280;48440;51.224;22.506;2022-08-01T10:12:00;98925.81;;;25.26;45.17
62402;BME280;48440;51.224;22.506;2022-08-01T10:14:27;98931.00;;;25.43;45.39
62402;BME280;48440;51.224;22.506;2022-08-01T10:16:56;98919.94;;;25.47;45.20
62402;BME280;48440;51.224;22.506;2022-08-01T10:19:23;98924.50;;;25.55;45.63
62402;BME280;48440;51.224;22.506;2022-08-01T10:21:54;98933.47;;;25.64;45.47
62402;BME280;48440;51.224;22.506;2022-08-01T10:24:21;98926.66;;;25.61;43.82
62402;BME280;48440;51.224;22.506;2022-08-01T10:26:55;98923.94;;;25.46;43.36
62402;BME280;48440;51.224;22.506;2022-08-01T10:32:42;98932.47;;;25.21;44.24
62402;BME280;48440;51.224;22.506;2022-08-01T10:35:19;98928.09;;;25.20;44.21
62402;BME280;48440;51.224;22.506;2022-08-01T10:37:52;98920.81;;;25.31;43.49
62402;BME280;48440;51.224;22.506;2022-08-01T10:40:26;98932.53;;;25.41;43.56
62402;BME280;48440;51.224;22.506;2022-08-01T10:43:04;98924.13;;;25.37;43.72
62402;BME280;48440;51.224;22.506;2022-08-01T10:45:30;98931.72;;;25.40;43.88
62402;BME280;48440;51.224;22.506;2022-08-01T10:48:09;98931.72;;;25.40;44.15
62402;BME280;48440;51.224;22.506;2022-08-01T10:51:01;98931.41;;;25.10;43.29
62402;BME280;48440;51.224;22.506;2022-08-01T10:53:30;98913.06;;;25.06;43.91
62402;BME280;48440;51.224;22.506;2022-08-01T10:58:29;98924.69;;;25.11;44.71
62402;BME280;48440;51.224;22.506;2022-08-01T11:07:19;98923.72;;;25.03;45.10
62402;BME280;48440;51.224;22.506;2022-08-01T11:09:47;98921.03;;;25.07;44.57
62402;BME280;48440;51.224;22.506;2022-08-01T11:12:16;98920.13;;;25.03;43.92
62402;BME280;48440;51.224;22.506;2022-08-01T11:17:44;98909.84;;;24.88;43.66
62402;BME280;48440;51.224;22.506;2022-08-01T11:20:26;98913.56;;;24.80;44.07
62402;BME280;48440;51.224;22.506;2022-08-01T11:30:50;98909.91;;;24.60;42.26
62402;BME280;48440;51.224;22.506;2022-08-01T11:33:18;98911.44;;;24.57;41.41
62402;BME280;48440;51.224;22.506;2022-08-01T11:36:16;98916.63;;;24.59;42.83
62402;BME280;48440;51.224;22.506;2022-08-01T11:44:02;98917.50;;;24.47;43.95
62402;BME280;48440;51.224;22.506;2022-08-01T11:49:26;98906.94;;;24.37;45.32
62402;BME280;48440;51.224;22.506;2022-08-01T11:52:08;98908.72;;;24.29;45.21
62402;BME280;48440;51.224;22.506;2022-08-01T11:54:39;98900.50;;;24.21;44.87
62402;BME280;48440;51.224;22.506;2022-08-01T11:57:10;98899.19;;;24.15;44.78
62402;BME280;48440;51.224;22.506;2022-08-01T11:59:43;98917.00;;;24.01;44.32
62402;BME280;48440;51.224;22.506;2022-08-01T12:02:28;98906.16;;;23.96;44.39
62402;BME280;48440;51.224;22.506;2022-08-01T12:07:38;98903.66;;;23.91;44.22
62402;BME280;48440;51.224;22.506;2022-08-01T12:10:07;98910.72;;;23.89;41.44
62402;BME280;48440;51.224;22.506;2022-08-01T12:12:35;98913.38;;;23.85;41.62
62402;BME280;48440;51.224;22.506;2022-08-01T12:15:06;98912.38;;;23.78;40.42
62402;BME280;48440;51.224;22.506;2022-08-01T12:17:39;98913.41;;;23.73;41.12
62402;BME280;48440;51.224;22.506;2022-08-01T12:20:08;98909.72;;;23.69;40.74
62402;BME280;48440;51.224;22.506;2022-08-01T12:22:34;98908.03;;;23.64;38.02
62402;BME280;48440;51.224;22.506;2022-08-01T12:25:11;98908.63;;;23.58;37.81
62402;BME280;48440;51.224;22.506;2022-08-01T12:27:38;98906.75;;;23.50;38.24
62402;BME280;48440;51.224;22.506;2022-08-01T12:30:06;98915.91;;;23.38;38.39
62402;BME280;48440;51.224;22.506;2022-08-01T12:32:34;98909.56;;;23.38;39.79
62402;BME280;48440;51.224;22.506;2022-08-01T12:37:39;98906.56;;;23.30;39.46
62402;BME280;48440;51.224;22.506;2022-08-01T12:42:38;98913.72;;;23.31;40.61
62402;BME280;48440;51.224;22.506;2022-08-01T12:45:06;98913.59;;;23.28;41.15
62402;BME280;48440;51.224;22.506;2022-08-01T12:47:33;98913.13;;;23.26;41.00
62402;BME280;48440;51.224;22.506;2022-08-01T12:50:01;98913.72;;;23.19;41.27
62402;BME280;48440;51.224;22.506;2022-08-01T12:52:27;98914.75;;;23.15;41.91
62402;BME280;48440;51.224;22.506;2022-08-01T12:57:35;98903.47;;;23.08;42.42
62402;BME280;48440;51.224;22.506;2022-08-01T13:00:12;98906.25;;;23.08;42.50
62402;BME280;48440;51.224;22.506;2022-08-01T13:02:39;98912.81;;;23.03;41.31
62402;BME280;48440;51.224;22.506;2022-08-01T13:05:05;98909.59;;;23.01;41.44
62402;BME280;48440;51.224;22.506;2022-08-01T13:07:57;98914.06;;;22.93;41.02
62402;BME280;48440;51.224;22.506;2022-08-01T13:10:28;98911.19;;;22.90;41.22
62402;BME280;48440;51.224;22.506;2022-08-01T13:12:57;98916.25;;;22.88;42.69
62402;BME280;48440;51.224;22.506;2022-08-01T13:15:28;98913.41;;;22.84;41.83
62402;BME280;48440;51.224;22.506;2022-08-01T13:17:56;98910.50;;;22.81;42.16
62402;BME280;48440;51.224;22.506;2022-08-01T13:20:27;98907.59;;;22.77;43.01
62402;BME280;48440;51.224;22.506;2022-08-01T13:22:53;98914.44;;;22.80;43.06
62402;BME280;48440;51.224;22.506;2022-08-01T13:25:19;98910.50;;;22.81;41.71
62402;BME280;48440;51.224;22.506;2022-08-01T13:27:45;98914.09;;;22.81;41.70
62402;BME280;48440;51.224;22.506;2022-08-01T13:30:20;98910.84;;;22.79;41.49
62402;BME280;48440;51.224;22.506;2022-08-01T13:32:59;98910.84;;;22.79;41.72
62402;BME280;48440;51.224;22.506;2022-08-01T13:35:25;98917.03;;;22.76;42.25
62402;BME280;48440;51.224;22.506;2022-08-01T13:37:51;98911.03;;;22.74;42.98
62402;BME280;48440;51.224;22.506;2022-08-01T13:40:26;98913.00;;;22.74;42.00
62402;BME280;48440;51.224;22.506;2022-08-01T13:42:54;98917.53;;;22.78;40.80
62402;BME280;48440;51.224;22.506;2022-08-01T13:45:21;98913.63;;;22.79;40.92
62402;BME280;48440;51.224;22.506;2022-08-01T13:47:47;98913.13;;;22.77;41.41
62402;BME280;48440;51.224;22.506;2022-08-01T13:50:13;98921.75;;;22.76;41.44
62402;BME280;48440;51.224;22.506;2022-08-01T13:52:38;98911.50;;;22.76;41.75
62402;BME280;48440;51.224;22.506;2022-08-01T13:55:04;98914.28;;;22.76;42.46
62402;BME280;48440;51.224;22.506;2022-08-01T13:57:30;98911.50;;;22.76;42.90
62402;BME280;48440;51.224;22.506;2022-08-01T13:59:56;98907.94;;;22.76;42.92
62402;BME280;48440;51.224;22.506;2022-08-01T14:02:27;98919.34;;;22.74;42.98
62402;BME280;48440;51.224;22.506;2022-08-01T14:04:54;98910.22;;;22.74;43.33
62402;BME280;48440;51.224;22.506;2022-08-01T14:07:21;98916.56;;;22.74;43.68